sensor_id;sensor_type;location;lat;lon;timestamp;P1;durP1;ratioP1;P2;durP2;ratioP2
59599;SDS011;61855;55.030;73.326;2022-10-20T00:02:10;7.30;;;4.97;;
59599;SDS011;61855;55.030;73.326;2022-10-20T00:04:36;5.95;;;4.63;;
59599;SDS011;61855;55.030;73.326;2022-10-20T00:07:02;5.25;;;4.20;;
59599;SDS011;61855;55.030;73.326;2022-10-20T00:09:35;4.85;;;4.20;;
59599;SDS011;61855;55.030;73.326;2022-10-20T00:12:03;6.82;;;4.55;;
59599;SDS011;61855;55.030;73.326;2022-10-20T00:14:30;6.45;;;4.70;;
59599;SDS011;61855;55.030;73.326;2022-10-20T00:17:00;10.38;;;5.00;;
59599;SDS011;61855;55.030;73.326;2022-10-20T00:19:27;7.38;;;4.72;;
59599;SDS011;61855;55.030;73.326;2022-10-20T00:21:59;8.50;;;4.97;;
59599;SDS011;61855;55.030;73.326;2022-10-20T00:24:25;6.07;;;4.93;;
59599;SDS011;61855;55.030;73.326;2022-10-20T00:26:56;6.68;;;4.75;;
59599;SDS011;61855;55.030;73.326;2022-10-20T00:29:26;7.50;;;5.00;;
59599;SDS011;61855;55.030;73.326;2022-10-20T00:31:52;7.10;;;4.88;;
59599;SDS011;61855;55.030;73.326;2022-10-20T00:34:18;7.55;;;5.38;;
59599;SDS011;61855;55.030;73.326;2022-10-20T00:36:44;9.52;;;5.35;;
59599;SDS011;61855;55.030;73.326;2022-10-20T00:39:21;10.00;;;5.40;;
59599;SDS011;61855;55.030;73.326;2022-10-20T00:41:47;7.85;;;5.38;;
59599;SDS011;61855;55.030;73.326;2022-10-20T00:47:32;8.40;;;6.15;;
59599;SDS011;61855;55.030;73.326;2022-10-20T00:50:05;10.77;;;6.22;;
59599;SDS011;61855;55.030;73.326;2022-10-20T00:52:42;8.50;;;5.68;;
59599;SDS011;61855;55.030;73.326;2022-10-20T00:55:10;8.57;;;5.85;;
59599;SDS011;61855;55.030;73.326;2022-10-20T00:57:50;8.77;;;5.57;;
59599;SDS011;61855;55.030;73.326;2022-10-20T01:00:19;6.35;;;5.47;;
59599;SDS011;61855;55.030;73.326;2022-10-20T01:02:46;10.75;;;5.63;;
59599;SDS011;61855;55.030;73.326;2022-10-20T01:05:26;7.85;;;5.47;;
59599;SDS011;61855;55.030;73.326;2022-10-20T01:07:53;7.00;;;5.38;;
59599;SDS011;61855;55.030;73.326;2022-10-20T01:10:19;8.23;;;5.32;;
59599;SDS011;61855;55.030;73.326;2022-10-20T01:12:59;8.93;;;5.90;;
59599;SDS011;61855;55.030;73.326;2022-10-20T01:15:41;8.90;;;5.72;;
59599;SDS011;61855;55.030;73.326;2022-10-20T01:18:30;8.88;;;6.22;;
59599;SDS011;61855;55.030;73.326;2022-10-20T01:29:48;8.50;;;5.55;;
59599;SDS011;61855;55.030;73.326;2022-10-20T01:43:00;7.35;;;5.72;;
59599;SDS011;61855;55.030;73.326;2022-10-20T01:45:31;8.25;;;5.70;;
59599;SDS011;61855;55.030;73.326;2022-10-20T01:48:00;8.43;;;5.90;;
59599;SDS011;61855;55.030;73.326;2022-10-20T01:50:30;7.78;;;5.88;;
59599;SDS011;61855;55.030;73.326;2022-10-20T01:52:59;8.65;;;6.30;;
59599;SDS011;61855;55.030;73.326;2022-10-20T01:55:26;6.78;;;5.32;;
59599;SDS011;61855;55.030;73.326;2022-10-20T01:58:02;9.25;;;5.70;;
59599;SDS011;61855;55.030;73.326;2022-10-20T02:00:56;8.65;;;5.38;;
59599;SDS011;61855;55.030;73.326;2022-10-20T02:06:32;9.02;;;6.63;;
59599;SDS011;61855;55.030;73.326;2022-10-20T02:09:01;9.68;;;6.45;;
59599;SDS011;61855;55.030;73.326;2022-10-20T02:11:52;12.60;;;7.45;;
59599;SDS011;61855;55.030;73.326;2022-10-20T02:14:28;11.00;;;6.75;;
59599;SDS011;61855;55.030;73.326;2022-10-20T02:17:01;9.35;;;6.65;;
59599;SDS011;61855;55.030;73.326;2022-10-20T02:19:35;8.60;;;6.53;;
59599;SDS011;61855;55.030;73.326;2022-10-20T02:22:04;9.10;;;6.28;;
59599;SDS011;61855;55.030;73.326;2022-10-20T02:24:35;7.95;;;6.70;;
59599;SDS011;61855;55.030;73.326;2022-10-20T02:27:08;9.02;;;7.35;;
59599;SDS011;61855;55.030;73.326;2022-10-20T02:29:47;8.73;;;6.38;;
59599;SDS011;61855;55.030;73.326;2022-10-20T02:32:23;11.25;;;6.88;;
59599;SDS011;61855;55.030;73.326;2022-10-20T02:34:49;17.00;;;7.05;;
59599;SDS011;61855;55.030;73.326;2022-10-20T02:37:16;8.25;;;6.30;;
59599;SDS011;61855;55.030;73.326;2022-10-20T02:39:42;11.23;;;6.47;;
59599;SDS011;61855;55.030;73.326;2022-10-20T02:42:18;10.30;;;6.13;;
59599;SDS011;61855;55.030;73.326;2022-10-20T02:44:44;9.75;;;5.63;;
59599;SDS011;61855;55.030;73.326;2022-10-20T02:47:10;10.75;;;5.75;;
59599;SDS011;61855;55.030;73.326;2022-10-20T02:49:37;7.35;;;5.32;;
59599;SDS011;61855;55.030;73.326;2022-10-20T02:52:03;11.32;;;6.38;;
59599;SDS011;61855;55.030;73.326;2022-10-20T02:54:29;8.65;;;5.85;;
59599;SDS011;61855;55.030;73.326;2022-10-20T02:56:55;9.20;;;6.00;;
59599;SDS011;61855;55.030;73.326;2022-10-20T02:59:21;7.20;;;4.97;;
59599;SDS011;61855;55.030;73.326;2022-10-20T03:01:49;7.20;;;4.65;;
59599;SDS011;61855;55.030;73.326;2022-10-20T03:04:17;6.97;;;5.00;;
59599;SDS011;61855;55.030;73.326;2022-10-20T03:06:43;8.38;;;5.22;;
59599;SDS011;61855;55.030;73.326;2022-10-20T03:09:09;9.27;;;6.15;;
59599;SDS011;61855;55.030;73.326;2022-10-20T03:11:35;12.32;;;5.47;;
59599;SDS011;61855;55.030;73.326;2022-10-20T03:14:01;13.77;;;5.43;;
59599;SDS011;61855;55.030;73.326;2022-10-20T03:16:28;7.47;;;5.60;;
59599;SDS011;61855;55.030;73.326;2022-10-20T03:18:54;12.38;;;8.55;;
59599;SDS011;61855;55.030;73.326;2022-10-20T03:21:20;10.77;;;8.15;;
59599;SDS011;61855;55.030;73.326;2022-10-20T03:23:46;10.98;;;8.85;;
59599;SDS011;61855;55.030;73.326;2022-10-20T03:26:14;11.77;;;6.35;;
59599;SDS011;61855;55.030;73.326;2022-10-20T03:28:40;7.60;;;5.80;;
59599;SDS011;61855;55.030;73.326;2022-10-20T03:31:06;8.27;;;5.85;;
59599;SDS011;61855;55.030;73.326;2022-10-20T03:33:33;11.68;;;6.50;;
59599;SDS011;61855;55.030;73.326;2022-10-20T03:35:59;9.32;;;5.07;;
59599;SDS011;61855;55.030;73.326;2022-10-20T03:38:25;9.88;;;5.38;;
59599;SDS011;61855;55.030;73.326;2022-10-20T03:40:51;7.72;;;5.82;;
59599;SDS011;61855;55.030;73.326;2022-10-20T03:43:17;13.18;;;5.88;;
59599;SDS011;61855;55.030;73.326;2022-10-20T03:45:43;8.48;;;5.47;;
59599;SDS011;61855;55.030;73.326;2022-10-20T03:48:10;10.48;;;6.13;;
59599;SDS011;61855;55.030;73.326;2022-10-20T03:50:40;12.45;;;6.32;;
59599;SDS011;61855;55.030;73.326;2022-10-20T03:53:07;11.68;;;6.50;;
59599;SDS011;61855;55.030;73.326;2022-10-20T03:55:38;8.85;;;5.60;;
59599;SDS011;61855;55.030;73.326;2022-10-20T03:58:04;10.48;;;6.45;;
59599;SDS011;61855;55.030;73.326;2022-10-20T04:00:30;8.65;;;5.40;;
59599;SDS011;61855;55.030;73.326;2022-10-20T04:03:02;9.02;;;6.25;;
59599;SDS011;61855;55.030;73.326;2022-10-20T04:05:28;9.70;;;6.00;;
59599;SDS011;61855;55.030;73.326;2022-10-20T04:08:00;10.15;;;5.72;;
59599;SDS011;61855;55.030;73.326;2022-10-20T04:10:30;7.57;;;5.63;;
59599;SDS011;61855;55.030;73.326;2022-10-20T04:12:59;6.95;;;5.13;;
59599;SDS011;61855;55.030;73.326;2022-10-20T04:15:26;6.53;;;4.97;;
59599;SDS011;61855;55.030;73.326;2022-10-20T04:17:52;7.28;;;5.43;;
59599;SDS011;61855;55.030;73.326;2022-10-20T04:20:18;6.55;;;4.93;;
59599;SDS011;61855;55.030;73.326;2022-10-20T04:22:45;8.60;;;4.53;;
59599;SDS011;61855;55.030;73.326;2022-10-20T04:25:11;7.22;;;5.15;;
59599;SDS011;61855;55.030;73.326;2022-10-20T04:27:38;7.72;;;5.10;;
59599;SDS011;61855;55.030;73.326;2022-10-20T04:30:04;5.65;;;4.47;;
59599;SDS011;61855;55.030;73.326;2022-10-20T04:32:31;7.18;;;4.18;;
59599;SDS011;61855;55.030;73.326;2022-10-20T04:34:57;4.43;;;3.97;;
59599;SDS011;61855;55.030;73.326;2022-10-20T04:37:27;6.05;;;4.57;;
59599;SDS011;61855;55.030;73.326;2022-10-20T04:39:58;6.65;;;4.50;;
59599;SDS011;61855;55.030;73.326;2022-10-20T04:42:27;5.72;;;4.40;;
59599;SDS011;61855;55.030;73.326;2022-10-20T04:44:53;5.93;;;3.97;;
59599;SDS011;61855;55.030;73.326;2022-10-20T04:47:19;8.55;;;4.25;;
59599;SDS011;61855;55.030;73.326;2022-10-20T04:49:46;6.28;;;3.88;;
59599;SDS011;61855;55.030;73.326;2022-10-20T04:52:12;4.57;;;3.97;;
59599;SDS011;61855;55.030;73.326;2022-10-20T04:54:42;6.30;;;4.43;;
59599;SDS011;61855;55.030;73.326;2022-10-20T04:57:08;6.50;;;4.28;;
59599;SDS011;61855;55.030;73.326;2022-10-20T04:59:46;5.78;;;4.28;;
59599;SDS011;61855;55.030;73.326;2022-10-20T05:02:12;6.18;;;4.40;;
59599;SDS011;61855;55.030;73.326;2022-10-20T05:04:48;5.95;;;4.43;;
59599;SDS011;61855;55.030;73.326;2022-10-20T05:07:14;6.18;;;4.88;;
59599;SDS011;61855;55.030;73.326;2022-10-20T05:09:40;9.23;;;4.80;;
59599;SDS011;61855;55.030;73.326;2022-10-20T05:12:06;8.73;;;4.95;;
59599;SDS011;61855;55.030;73.326;2022-10-20T05:14:32;8.55;;;5.05;;
59599;SDS011;61855;55.030;73.326;2022-10-20T05:16:58;8.73;;;5.07;;
59599;SDS011;61855;55.030;73.326;2022-10-20T05:19:24;9.50;;;5.95;;
59599;SDS011;61855;55.030;73.326;2022-10-20T05:21:50;9.23;;;5.40;;
59599;SDS011;61855;55.030;73.326;2022-10-20T05:24:16;8.80;;;5.68;;
59599;SDS011;61855;55.030;73.326;2022-10-20T05:26:43;11.10;;;5.75;;
59599;SDS011;61855;55.030;73.326;2022-10-20T05:29:09;8.65;;;5.82;;
59599;SDS011;61855;55.030;73.326;2022-10-20T05:31:39;9.52;;;6.25;;
59599;SDS011;61855;55.030;73.326;2022-10-20T05:34:08;6.95;;;5.85;;
59599;SDS011;61855;55.030;73.326;2022-10-20T05:36:34;7.85;;;6.25;;
59599;SDS011;61855;55.030;73.326;2022-10-20T05:39:00;10.13;;;6.55;;
59599;SDS011;61855;55.030;73.326;2022-10-20T05:41:27;8.30;;;6.07;;
59599;SDS011;61855;55.030;73.326;2022-10-20T05:43:56;8.30;;;6.22;;
59599;SDS011;61855;55.030;73.326;2022-10-20T05:46:25;14.30;;;6.47;;
59599;SDS011;61855;55.030;73.326;2022-10-20T05:48:54;8.20;;;5.85;;
59599;SDS011;61855;55.030;73.326;2022-10-20T05:51:34;9.30;;;6.68;;
59599;SDS011;61855;55.030;73.326;2022-10-20T05:54:01;11.40;;;6.38;;
59599;SDS011;61855;55.030;73.326;2022-10-20T05:56:28;8.50;;;6.10;;
59599;SDS011;61855;55.030;73.326;2022-10-20T05:58:55;11.43;;;6.50;;
59599;SDS011;61855;55.030;73.326;2022-10-20T06:01:28;9.32;;;5.85;;
59599;SDS011;61855;55.030;73.326;2022-10-20T06:04:17;11.07;;;6.15;;
59599;SDS011;61855;55.030;73.326;2022-10-20T06:06:47;8.20;;;6.13;;
59599;SDS011;61855;55.030;73.326;2022-10-20T06:09:14;12.77;;;7.75;;
59599;SDS011;61855;55.030;73.326;2022-10-20T06:11:40;7.60;;;6.25;;
59599;SDS011;61855;55.030;73.326;2022-10-20T06:14:07;6.75;;;5.18;;
59599;SDS011;61855;55.030;73.326;2022-10-20T06:16:36;6.18;;;4.75;;
59599;SDS011;61855;55.030;73.326;2022-10-20T06:19:02;7.00;;;4.22;;
59599;SDS011;61855;55.030;73.326;2022-10-20T06:21:30;5.55;;;4.53;;
59599;SDS011;61855;55.030;73.326;2022-10-20T06:23:57;4.35;;;3.95;;
59599;SDS011;61855;55.030;73.326;2022-10-20T06:26:25;7.93;;;4.47;;
59599;SDS011;61855;55.030;73.326;2022-10-20T06:29:01;7.25;;;4.53;;
59599;SDS011;61855;55.030;73.326;2022-10-20T06:31:29;5.80;;;4.07;;
59599;SDS011;61855;55.030;73.326;2022-10-20T06:33:57;7.75;;;3.75;;
59599;SDS011;61855;55.030;73.326;2022-10-20T06:36:24;5.97;;;4.30;;
59599;SDS011;61855;55.030;73.326;2022-10-20T06:38:55;5.53;;;4.28;;
59599;SDS011;61855;55.030;73.326;2022-10-20T06:41:25;5.45;;;4.50;;
59599;SDS011;61855;55.030;73.326;2022-10-20T06:43:52;5.32;;;4.43;;
59599;SDS011;61855;55.030;73.326;2022-10-20T06:46:23;6.57;;;4.78;;
59599;SDS011;61855;55.030;73.326;2022-10-20T06:48:53;5.30;;;4.40;;
59599;SDS011;61855;55.030;73.326;2022-10-20T06:51:19;9.38;;;3.92;;
59599;SDS011;61855;55.030;73.326;2022-10-20T06:53:56;5.90;;;3.80;;
59599;SDS011;61855;55.030;73.326;2022-10-20T06:56:24;10.20;;;6.32;;
59599;SDS011;61855;55.030;73.326;2022-10-20T06:58:54;7.55;;;5.60;;
59599;SDS011;61855;55.030;73.326;2022-10-20T07:01:32;7.18;;;4.75;;
59599;SDS011;61855;55.030;73.326;2022-10-20T07:04:02;6.97;;;4.20;;
59599;SDS011;61855;55.030;73.326;2022-10-20T07:06:42;8.82;;;5.45;;
59599;SDS011;61855;55.030;73.326;2022-10-20T07:09:11;6.68;;;5.25;;
59599;SDS011;61855;55.030;73.326;2022-10-20T07:11:39;7.78;;;3.63;;
59599;SDS011;61855;55.030;73.326;2022-10-20T07:14:05;7.32;;;4.50;;
59599;SDS011;61855;55.030;73.326;2022-10-20T07:16:33;4.72;;;4.03;;
59599;SDS011;61855;55.030;73.326;2022-10-20T07:19:06;8.85;;;5.95;;
59599;SDS011;61855;55.030;73.326;2022-10-20T07:21:42;10.00;;;5.70;;
59599;SDS011;61855;55.030;73.326;2022-10-20T07:24:10;5.97;;;4.15;;
59599;SDS011;61855;55.030;73.326;2022-10-20T07:26:39;7.10;;;3.50;;
59599;SDS011;61855;55.030;73.326;2022-10-20T07:29:05;7.90;;;5.60;;
59599;SDS011;61855;55.030;73.326;2022-10-20T07:31:34;6.63;;;5.20;;
59599;SDS011;61855;55.030;73.326;2022-10-20T07:34:03;15.98;;;6.05;;
59599;SDS011;61855;55.030;73.326;2022-10-20T07:36:31;9.30;;;4.43;;
59599;SDS011;61855;55.030;73.326;2022-10-20T07:39:00;12.07;;;4.45;;
59599;SDS011;61855;55.030;73.326;2022-10-20T07:41:28;5.90;;;4.35;;
59599;SDS011;61855;55.030;73.326;2022-10-20T07:43:58;8.27;;;4.13;;
59599;SDS011;61855;55.030;73.326;2022-10-20T07:46:24;7.30;;;4.60;;
59599;SDS011;61855;55.030;73.326;2022-10-20T07:48:50;7.93;;;4.78;;
59599;SDS011;61855;55.030;73.326;2022-10-20T07:54:14;6.70;;;3.90;;
59599;SDS011;61855;55.030;73.326;2022-10-20T07:56:40;4.47;;;3.25;;
59599;SDS011;61855;55.030;73.326;2022-10-20T07:59:08;4.47;;;3.58;;
59599;SDS011;61855;55.030;73.326;2022-10-20T08:01:35;5.63;;;3.28;;
59599;SDS011;61855;55.030;73.326;2022-10-20T08:04:01;4.10;;;3.47;;
59599;SDS011;61855;55.030;73.326;2022-10-20T08:06:28;5.63;;;3.20;;
59599;SDS011;61855;55.030;73.326;2022-10-20T08:08:54;4.32;;;3.10;;
59599;SDS011;61855;55.030;73.326;2022-10-20T08:11:21;25.75;;;4.70;;
59599;SDS011;61855;55.030;73.326;2022-10-20T08:13:47;7.68;;;3.45;;
59599;SDS011;61855;55.030;73.326;2022-10-20T08:16:16;5.88;;;4.00;;
59599;SDS011;61855;55.030;73.326;2022-10-20T08:18:46;4.10;;;3.58;;
59599;SDS011;61855;55.030;73.326;2022-10-20T08:21:13;9.50;;;3.80;;
59599;SDS011;61855;55.030;73.326;2022-10-20T08:23:44;4.97;;;3.67;;
59599;SDS011;61855;55.030;73.326;2022-10-20T08:26:11;5.28;;;3.75;;
59599;SDS011;61855;55.030;73.326;2022-10-20T08:28:49;7.10;;;3.80;;
59599;SDS011;61855;55.030;73.326;2022-10-20T08:31:17;7.28;;;4.38;;
59599;SDS011;61855;55.030;73.326;2022-10-20T08:33:43;5.07;;;3.88;;
59599;SDS011;61855;55.030;73.326;2022-10-20T08:36:14;5.57;;;3.80;;
59599;SDS011;61855;55.030;73.326;2022-10-20T08:38:41;8.10;;;3.63;;
59599;SDS011;61855;55.030;73.326;2022-10-20T08:41:19;15.02;;;4.28;;
59599;SDS011;61855;55.030;73.326;2022-10-20T08:43:49;4.22;;;3.67;;
59599;SDS011;61855;55.030;73.326;2022-10-20T08:46:28;4.93;;;3.65;;
59599;SDS011;61855;55.030;73.326;2022-10-20T08:48:57;4.43;;;3.92;;
59599;SDS011;61855;55.030;73.326;2022-10-20T08:51:26;11.50;;;4.10;;
59599;SDS011;61855;55.030;73.326;2022-10-20T08:54:10;6.15;;;3.67;;
59599;SDS011;61855;55.030;73.326;2022-10-20T08:56:38;6.22;;;3.35;;
59599;SDS011;61855;55.030;73.326;2022-10-20T08:59:15;4.95;;;3.97;;
59599;SDS011;61855;55.030;73.326;2022-10-20T09:01:59;5.20;;;4.25;;
59599;SDS011;61855;55.030;73.326;2022-10-20T09:04:36;5.82;;;4.90;;
59599;SDS011;61855;55.030;73.326;2022-10-20T09:10:22;3.30;;;3.00;;
59599;SDS011;61855;55.030;73.326;2022-10-20T09:12:54;3.58;;;3.28;;
59599;SDS011;61855;55.030;73.326;2022-10-20T09:15:21;5.15;;;3.45;;
59599;SDS011;61855;55.030;73.326;2022-10-20T09:18:04;4.68;;;3.13;;
59599;SDS011;61855;55.030;73.326;2022-10-20T09:20:37;5.03;;;3.43;;
59599;SDS011;61855;55.030;73.326;2022-10-20T09:23:15;3.05;;;2.70;;
59599;SDS011;61855;55.030;73.326;2022-10-20T09:25:43;4.28;;;3.17;;
59599;SDS011;61855;55.030;73.326;2022-10-20T09:28:26;6.00;;;3.17;;
59599;SDS011;61855;55.030;73.326;2022-10-20T09:30:53;9.02;;;3.10;;
59599;SDS011;61855;55.030;73.326;2022-10-20T09:33:22;3.33;;;2.60;;
59599;SDS011;61855;55.030;73.326;2022-10-20T09:35:53;3.55;;;2.97;;
59599;SDS011;61855;55.030;73.326;2022-10-20T09:38:32;4.40;;;3.00;;
59599;SDS011;61855;55.030;73.326;2022-10-20T09:43:59;3.15;;;2.85;;
59599;SDS011;61855;55.030;73.326;2022-10-20T09:46:36;5.93;;;3.03;;
59599;SDS011;61855;55.030;73.326;2022-10-20T09:51:54;6.00;;;3.33;;
59599;SDS011;61855;55.030;73.326;2022-10-20T09:54:22;6.53;;;3.72;;
59599;SDS011;61855;55.030;73.326;2022-10-20T09:56:50;4.32;;;3.58;;
59599;SDS011;61855;55.030;73.326;2022-10-20T09:59:37;5.05;;;3.72;;
59599;SDS011;61855;55.030;73.326;2022-10-20T10:05:11;5.45;;;4.32;;
59599;SDS011;61855;55.030;73.326;2022-10-20T10:07:40;7.03;;;4.30;;
59599;SDS011;61855;55.030;73.326;2022-10-20T10:12:54;7.47;;;5.43;;
59599;SDS011;61855;55.030;73.326;2022-10-20T10:15:33;8.70;;;5.40;;
59599;SDS011;61855;55.030;73.326;2022-10-20T10:18:11;6.93;;;5.18;;
59599;SDS011;61855;55.030;73.326;2022-10-20T10:20:45;9.50;;;5.47;;
59599;SDS011;61855;55.030;73.326;2022-10-20T10:23:17;6.80;;;5.07;;
59599;SDS011;61855;55.030;73.326;2022-10-20T10:33:41;11.60;;;5.47;;
59599;SDS011;61855;55.030;73.326;2022-10-20T10:36:11;8.05;;;5.30;;
59599;SDS011;61855;55.030;73.326;2022-10-20T10:38:53;8.85;;;4.60;;
59599;SDS011;61855;55.030;73.326;2022-10-20T10:46:37;8.40;;;4.60;;
59599;SDS011;61855;55.030;73.326;2022-10-20T10:55:02;9.65;;;4.53;;
59599;SDS011;61855;55.030;73.326;2022-10-20T11:00:31;9.57;;;4.40;;
59599;SDS011;61855;55.030;73.326;2022-10-20T11:06:09;9.65;;;4.28;;
59599;SDS011;61855;55.030;73.326;2022-10-20T11:08:45;6.35;;;4.07;;
59599;SDS011;61855;55.030;73.326;2022-10-20T11:19:26;23.42;;;6.30;;
59599;SDS011;61855;55.030;73.326;2022-10-20T11:22:26;7.18;;;4.60;;
59599;SDS011;61855;55.030;73.326;2022-10-20T11:25:35;16.80;;;5.40;;
59599;SDS011;61855;55.030;73.326;2022-10-20T11:28:05;14.82;;;4.95;;
59599;SDS011;61855;55.030;73.326;2022-10-20T11:30:52;10.82;;;4.95;;
59599;SDS011;61855;55.030;73.326;2022-10-20T11:33:28;7.13;;;4.53;;
59599;SDS011;61855;55.030;73.326;2022-10-20T11:36:16;6.65;;;4.78;;
59599;SDS011;61855;55.030;73.326;2022-10-20T11:38:56;6.47;;;4.93;;
59599;SDS011;61855;55.030;73.326;2022-10-20T11:41:31;7.97;;;5.13;;
59599;SDS011;61855;55.030;73.326;2022-10-20T11:47:11;8.25;;;5.70;;
59599;SDS011;61855;55.030;73.326;2022-10-20T11:49:43;9.63;;;6.05;;
59599;SDS011;61855;55.030;73.326;2022-10-20T11:55:35;9.80;;;5.75;;
59599;SDS011;61855;55.030;73.326;2022-10-20T12:06:50;11.20;;;6.32;;
59599;SDS011;61855;55.030;73.326;2022-10-20T12:12:14;13.80;;;6.20;;
59599;SDS011;61855;55.030;73.326;2022-10-20T12:14:55;13.13;;;7.38;;
59599;SDS011;61855;55.030;73.326;2022-10-20T12:17:33;10.65;;;6.63;;
59599;SDS011;61855;55.030;73.326;2022-10-20T12:22:54;14.97;;;7.13;;
59599;SDS011;61855;55.030;73.326;2022-10-20T12:25:35;16.58;;;7.70;;
59599;SDS011;61855;55.030;73.326;2022-10-20T12:31:03;11.50;;;7.20;;
59599;SDS011;61855;55.030;73.326;2022-10-20T12:33:34;11.40;;;6.85;;
59599;SDS011;61855;55.030;73.326;2022-10-20T12:38:47;12.13;;;7.93;;
59599;SDS011;61855;55.030;73.326;2022-10-20T12:44:16;15.35;;;8.02;;
59599;SDS011;61855;55.030;73.326;2022-10-20T12:47:18;14.38;;;7.68;;
59599;SDS011;61855;55.030;73.326;2022-10-20T12:52:45;14.75;;;9.73;;
59599;SDS011;61855;55.030;73.326;2022-10-20T12:55:16;18.15;;;9.73;;
59599;SDS011;61855;55.030;73.326;2022-10-20T12:57:49;14.27;;;9.13;;
59599;SDS011;61855;55.030;73.326;2022-10-20T13:03:42;16.83;;;10.13;;
59599;SDS011;61855;55.030;73.326;2022-10-20T13:14:40;14.55;;;9.50;;
59599;SDS011;61855;55.030;73.326;2022-10-20T13:19:36;16.75;;;10.57;;
59599;SDS011;61855;55.030;73.326;2022-10-20T13:24:59;18.70;;;11.05;;
59599;SDS011;61855;55.030;73.326;2022-10-20T13:27:39;16.15;;;10.50;;
59599;SDS011;61855;55.030;73.326;2022-10-20T13:30:06;20.23;;;11.70;;
59599;SDS011;61855;55.030;73.326;2022-10-20T13:36:07;21.08;;;10.98;;
59599;SDS011;61855;55.030;73.326;2022-10-20T13:38:51;21.92;;;11.73;;
59599;SDS011;61855;55.030;73.326;2022-10-20T13:52:31;20.15;;;9.35;;
59599;SDS011;61855;55.030;73.326;2022-10-20T13:55:03;15.10;;;9.43;;
59599;SDS011;61855;55.030;73.326;2022-10-20T13:57:32;18.85;;;9.68;;
59599;SDS011;61855;55.030;73.326;2022-10-20T14:00:03;16.83;;;9.27;;
59599;SDS011;61855;55.030;73.326;2022-10-20T14:02:49;23.27;;;9.65;;
59599;SDS011;61855;55.030;73.326;2022-10-20T14:05:27;18.50;;;8.68;;
59599;SDS011;61855;55.030;73.326;2022-10-20T14:07:54;13.98;;;8.25;;
59599;SDS011;61855;55.030;73.326;2022-10-20T14:12:57;17.23;;;9.77;;
59599;SDS011;61855;55.030;73.326;2022-10-20T14:15:31;27.45;;;9.65;;
59599;SDS011;61855;55.030;73.326;2022-10-20T14:18:18;16.80;;;9.18;;
59599;SDS011;61855;55.030;73.326;2022-10-20T14:21:03;16.90;;;9.80;;
59599;SDS011;61855;55.030;73.326;2022-10-20T14:23:38;22.40;;;11.65;;
59599;SDS011;61855;55.030;73.326;2022-10-20T14:26:09;18.48;;;10.60;;
59599;SDS011;61855;55.030;73.326;2022-10-20T14:28:46;23.08;;;10.38;;
59599;SDS011;61855;55.030;73.326;2022-10-20T14:31:14;16.73;;;10.48;;
59599;SDS011;61855;55.030;73.326;2022-10-20T14:33:43;20.70;;;11.60;;
59599;SDS011;61855;55.030;73.326;2022-10-20T14:38:56;18.90;;;10.35;;
59599;SDS011;61855;55.030;73.326;2022-10-20T14:41:34;17.85;;;10.43;;
59599;SDS011;61855;55.030;73.326;2022-10-20T14:44:17;16.88;;;9.68;;
59599;SDS011;61855;55.030;73.326;2022-10-20T14:46:48;14.63;;;9.32;;
59599;SDS011;61855;55.030;73.326;2022-10-20T14:49:17;17.23;;;9.95;;
59599;SDS011;61855;55.030;73.326;2022-10-20T14:54:43;18.85;;;9.43;;
59599;SDS011;61855;55.030;73.326;2022-10-20T15:02:39;14.05;;;8.55;;
59599;SDS011;61855;55.030;73.326;2022-10-20T15:05:34;14.02;;;8.35;;
59599;SDS011;61855;55.030;73.326;2022-10-20T15:08:13;16.17;;;8.30;;
59599;SDS011;61855;55.030;73.326;2022-10-20T15:10:44;19.25;;;8.57;;
59599;SDS011;61855;55.030;73.326;2022-10-20T15:13:47;14.85;;;7.63;;
59599;SDS011;61855;55.030;73.326;2022-10-20T15:16:06;15.43;;;8.50;;
59599;SDS011;61855;55.030;73.326;2022-10-20T15:18:33;14.13;;;8.48;;
59599;SDS011;61855;55.030;73.326;2022-10-20T15:20:59;12.32;;;8.00;;
59599;SDS011;61855;55.030;73.326;2022-10-20T15:23:25;16.35;;;7.88;;
59599;SDS011;61855;55.030;73.326;2022-10-20T15:25:59;13.48;;;8.35;;
59599;SDS011;61855;55.030;73.326;2022-10-20T15:33:41;12.07;;;7.13;;
59599;SDS011;61855;55.030;73.326;2022-10-20T15:36:20;13.68;;;8.05;;
59599;SDS011;61855;55.030;73.326;2022-10-20T15:38:52;15.05;;;7.55;;
59599;SDS011;61855;55.030;73.326;2022-10-20T15:41:22;12.38;;;8.07;;
59599;SDS011;61855;55.030;73.326;2022-10-20T15:43:50;11.32;;;8.05;;
59599;SDS011;61855;55.030;73.326;2022-10-20T15:46:17;13.55;;;7.93;;
59599;SDS011;61855;55.030;73.326;2022-10-20T15:48:44;15.13;;;8.13;;
59599;SDS011;61855;55.030;73.326;2022-10-20T15:51:13;9.70;;;7.15;;
59599;SDS011;61855;55.030;73.326;2022-10-20T15:53:48;19.13;;;11.70;;
59599;SDS011;61855;55.030;73.326;2022-10-20T15:56:15;12.60;;;7.53;;
59599;SDS011;61855;55.030;73.326;2022-10-20T15:58:46;13.93;;;6.97;;
59599;SDS011;61855;55.030;73.326;2022-10-20T16:01:15;10.30;;;6.82;;
59599;SDS011;61855;55.030;73.326;2022-10-20T16:03:52;10.55;;;7.30;;
59599;SDS011;61855;55.030;73.326;2022-10-20T16:06:20;10.30;;;6.82;;
59599;SDS011;61855;55.030;73.326;2022-10-20T16:08:47;11.27;;;6.80;;
59599;SDS011;61855;55.030;73.326;2022-10-20T16:11:14;11.18;;;7.38;;
59599;SDS011;61855;55.030;73.326;2022-10-20T16:13:41;10.85;;;7.15;;
59599;SDS011;61855;55.030;73.326;2022-10-20T16:16:09;11.07;;;6.93;;
59599;SDS011;61855;55.030;73.326;2022-10-20T16:18:38;9.07;;;6.82;;
59599;SDS011;61855;55.030;73.326;2022-10-20T16:21:04;15.52;;;10.75;;
59599;SDS011;61855;55.030;73.326;2022-10-20T16:23:31;12.23;;;8.25;;
59599;SDS011;61855;55.030;73.326;2022-10-20T16:26:08;10.27;;;7.40;;
59599;SDS011;61855;55.030;73.326;2022-10-20T16:28:35;12.02;;;7.43;;
59599;SDS011;61855;55.030;73.326;2022-10-20T16:31:03;10.68;;;7.55;;
59599;SDS011;61855;55.030;73.326;2022-10-20T16:33:35;10.65;;;7.57;;
59599;SDS011;61855;55.030;73.326;2022-10-20T16:36:05;13.32;;;7.40;;
59599;SDS011;61855;55.030;73.326;2022-10-20T16:38:33;12.80;;;6.75;;
59599;SDS011;61855;55.030;73.326;2022-10-20T16:41:02;10.90;;;7.53;;
59599;SDS011;61855;55.030;73.326;2022-10-20T16:43:30;11.68;;;7.95;;
59599;SDS011;61855;55.030;73.326;2022-10-20T16:45:56;10.95;;;7.72;;
59599;SDS011;61855;55.030;73.326;2022-10-20T16:48:22;11.20;;;8.32;;
59599;SDS011;61855;55.030;73.326;2022-10-20T16:50:49;11.43;;;7.93;;
59599;SDS011;61855;55.030;73.326;2022-10-20T16:53:15;12.38;;;8.60;;
59599;SDS011;61855;55.030;73.326;2022-10-20T16:55:54;10.63;;;8.25;;
59599;SDS011;61855;55.030;73.326;2022-10-20T16:58:31;11.50;;;7.90;;
59599;SDS011;61855;55.030;73.326;2022-10-20T17:00:58;12.25;;;7.75;;
59599;SDS011;61855;55.030;73.326;2022-10-20T17:03:30;12.68;;;8.27;;
59599;SDS011;61855;55.030;73.326;2022-10-20T17:05:59;14.13;;;8.40;;
59599;SDS011;61855;55.030;73.326;2022-10-20T17:08:27;11.63;;;8.32;;
59599;SDS011;61855;55.030;73.326;2022-10-20T17:11:10;13.38;;;8.52;;
59599;SDS011;61855;55.030;73.326;2022-10-20T17:13:41;12.70;;;8.60;;
59599;SDS011;61855;55.030;73.326;2022-10-20T17:16:15;10.45;;;7.70;;
59599;SDS011;61855;55.030;73.326;2022-10-20T17:18:45;12.63;;;7.85;;
59599;SDS011;61855;55.030;73.326;2022-10-20T17:21:12;12.38;;;7.45;;
59599;SDS011;61855;55.030;73.326;2022-10-20T17:23:40;12.95;;;7.70;;
59599;SDS011;61855;55.030;73.326;2022-10-20T17:26:16;11.85;;;6.85;;
59599;SDS011;61855;55.030;73.326;2022-10-20T17:28:53;10.48;;;7.20;;
59599;SDS011;61855;55.030;73.326;2022-10-20T17:31:20;9.63;;;6.93;;